Noril'sk, Russia
Current Conditions -  °F | °C
As of 5:00 AM on Monday 26 Jan 2015 (Local Time) from USNN Reporting Station
Light Snow Light Snow  
Wind Chill: -18°   Ceiling: 6400
Heat Index:   Visibility: 6mi
Dew Point: -6°   Wind: 16mph
Humidity: 72%   Direction: 210°SSW
Pressure: 30.36"   Gusts: NA
Location:  69.32°N, 88.2°E
Report Text: USNN 252200Z 21007MPS 9999 -SN OVC064 M17/M21 Q1028 NOSIG RMKQFE766 21450132
Loading
Personal Weather Stations






























Interactive Weather Map New forecast layout! Learn more

10-Day Weather Forecast

Advertisements
Track Severe Weather on mobile